Time;durP1;ratioP1;P1;durP2;ratioP2;P2;SDS_P1;SDS_P2;PMS_P1;PMS_P2;Temp;Humidity;BMP_temperature;BMP_pressure;BME280_temperature;BME280_humidity;BME280_pressure;Samples;Min_cycle;Max_cycle;Signal;HPM_P1;HPM_P2
2021/09/24 00:01:46;;;;;;;2.42;1.70;;;;;;;19.61;38.16;101767.38;144992;564;6002;-78
2021/09/24 00:04:14;;;;;;;4.18;1.87;;;;;;;19.65;38.13;101761.28;144992;590;6002;-77
2021/09/24 00:06:41;;;;;;;2.53;1.75;;;;;;;19.65;38.53;101750.75;144992;581;6002;-76
2021/09/24 00:09:09;;;;;;;2.50;1.77;;;;;;;19.66;38.51;101755.13;144992;588;6002;-78
2021/09/24 00:11:36;;;;;;;2.53;1.98;;;;;;;19.65;38.78;101756.03;144992;621;6002;-78
2021/09/24 00:14:04;;;;;;;3.33;1.73;;;;;;;19.57;38.83;101745.41;144992;601;6002;-76
2021/09/24 00:16:32;;;;;;;2.00;1.60;;;;;;;19.64;38.94;101743.72;144992;565;6002;-77
2021/09/24 00:18:58;;;;;;;2.42;1.80;;;;;;;19.64;38.44;101749.84;144992;579;6002;-77
2021/09/24 00:21:25;;;;;;;3.33;2.35;;;;;;;19.67;38.53;101749.88;144992;585;6002;-77
2021/09/24 00:23:51;;;;;;;3.30;2.10;;;;;;;19.63;38.90;101756.00;144992;581;6002;-78
2021/09/24 00:26:18;;;;;;;3.30;2.42;;;;;;;19.68;39.08;101759.56;144992;608;6002;-78
2021/09/24 00:28:44;;;;;;;7.28;2.97;;;;;;;19.71;39.13;101759.59;144992;572;6002;-77
2021/09/24 00:31:11;;;;;;;5.43;2.97;;;;;;;19.67;38.94;101752.50;144991;583;6002;-77
2021/09/24 00:33:37;;;;;;;7.10;3.53;;;;;;;19.60;39.52;101758.59;144992;575;6002;-77
2021/09/24 00:36:06;;;;;;;6.30;4.15;;;;;;;19.63;39.42;101757.72;144992;589;6002;-76
2021/09/24 00:38:35;;;;;;;7.97;4.28;;;;;;;19.47;39.59;101759.34;144992;596;6002;-77
2021/09/24 00:41:02;;;;;;;7.22;4.32;;;;;;;19.37;39.13;101747.84;144992;663;6002;-78
2021/09/24 00:43:28;;;;;;;10.65;4.78;;;;;;;19.39;40.13;101760.16;144992;592;6002;-77
2021/09/24 00:45:55;;;;;;;8.88;4.47;;;;;;;19.41;39.78;101754.91;144992;648;6002;-75
2021/09/24 00:48:21;;;;;;;6.25;4.20;;;;;;;19.44;39.69;101754.94;144992;577;6002;-77
2021/09/24 00:50:48;;;;;;;7.18;4.30;;;;;;;19.35;40.19;101747.84;144992;654;6002;-77
2021/09/24 00:53:14;;;;;;;9.25;4.35;;;;;;;19.40;39.94;101748.75;144992;670;6002;-79
2021/09/24 00:55:40;;;;;;;8.40;3.90;;;;;;;19.45;39.88;101748.78;144992;582;6002;-77
2021/09/24 00:58:07;;;;;;;8.65;3.75;;;;;;;19.49;39.93;101753.25;144992;565;6002;-78
2021/09/24 01:00:34;;;;;;;9.70;4.03;;;;;;;19.50;39.93;101741.84;144992;601;6002;-76
2021/09/24 01:03:00;;;;;;;8.40;4.20;;;;;;;19.51;39.94;101735.69;144992;567;6002;-76
2021/09/24 01:05:27;;;;;;;7.45;3.90;;;;;;;19.47;39.81;101741.81;144992;569;6002;-77
2021/09/24 01:07:55;;;;;;;6.78;3.72;;;;;;;19.51;39.96;101742.72;144992;576;6003;-75
2021/09/24 01:10:22;;;;;;;6.18;3.70;;;;;;;19.49;39.81;101747.97;144992;565;6002;-77
2021/09/24 01:12:48;;;;;;;5.15;3.50;;;;;;;19.49;39.57;101745.34;144992;574;6002;-77
2021/09/24 01:15:19;;;;;;;4.72;3.53;;;;;;;19.53;40.07;101746.25;144992;627;6003;-78
2021/09/24 01:17:47;;;;;;;5.68;3.28;;;;;;;19.51;39.98;101743.59;144992;565;6002;-75
2021/09/24 01:20:17;;;;;;;4.55;2.80;;;;;;;19.52;40.04;101741.87;144992;596;6002;-76
2021/09/24 01:22:44;;;;;;;4.95;2.80;;;;;;;19.53;39.79;101741.84;144992;607;6002;-76
2021/09/24 01:25:12;;;;;;;7.47;2.92;;;;;;;19.52;39.77;101741.87;144992;604;6002;-77
2021/09/24 01:27:39;;;;;;;3.67;2.35;;;;;;;19.54;39.61;101732.22;144992;569;6002;-76
2021/09/24 01:30:06;;;;;;;2.55;1.90;;;;;;;19.54;39.25;101737.47;144992;651;6002;-76
2021/09/24 01:32:33;;;;;;;3.00;1.98;;;;;;;19.53;39.51;101723.41;144992;610;6002;-77
2021/09/24 01:35:00;;;;;;;2.10;1.80;;;;;;;19.52;39.32;101719.03;144992;619;6002;-77
2021/09/24 01:37:27;;;;;;;4.07;2.22;;;;;;;19.53;39.66;101715.50;144992;565;6002;-78
2021/09/24 01:39:53;;;;;;;4.40;2.20;;;;;;;19.51;39.35;101717.25;144992;581;6002;-79
2021/09/24 01:42:24;;;;;;;3.28;1.90;;;;;;;19.47;39.60;101720.75;144992;563;6002;-78
2021/09/24 01:44:51;;;;;;;2.78;1.70;;;;;;;19.46;39.52;101723.38;144992;565;6002;-74
2021/09/24 01:47:18;;;;;;;2.20;1.65;;;;;;;19.41;39.38;101720.69;144992;564;6002;-77
2021/09/24 01:49:45;;;;;;;2.00;1.65;;;;;;;19.33;39.64;101722.38;144992;657;6002;-77
2021/09/24 01:52:12;;;;;;;2.03;1.83;;;;;;;19.28;39.76;101722.34;144992;603;6002;-77
2021/09/24 01:54:39;;;;;;;2.00;1.60;;;;;;;19.28;39.86;101718.78;144991;603;6002;-77
2021/09/24 01:57:05;;;;;;;1.90;1.77;;;;;;;19.29;39.68;101723.19;144992;577;6002;-77
2021/09/24 01:59:32;;;;;;;1.45;1.35;;;;;;;19.28;39.86;101721.44;144992;592;6002;-76
2021/09/24 02:01:58;;;;;;;1.62;1.52;;;;;;;19.19;39.73;101724.87;144992;591;6002;-76
2021/09/24 02:04:24;;;;;;;1.95;1.65;;;;;;;19.07;40.04;101720.34;144992;606;6002;-77
2021/09/24 02:06:51;;;;;;;1.87;1.70;;;;;;;19.08;40.05;101724.75;144992;629;6002;-76
2021/09/24 02:09:18;;;;;;;1.58;1.48;;;;;;;19.12;39.96;101726.56;144992;598;6002;-78
2021/09/24 02:11:44;;;;;;;2.95;1.50;;;;;;;19.12;40.01;101731.81;144992;607;6002;-77
2021/09/24 02:14:11;;;;;;;1.60;1.50;;;;;;;19.11;40.10;101722.16;144992;578;6002;-78
2021/09/24 02:16:39;;;;;;;1.70;1.60;;;;;;;19.14;39.86;101723.94;144992;573;6002;-78
2021/09/24 02:19:06;;;;;;;4.22;1.73;;;;;;;19.08;39.98;101730.00;144992;563;6002;-78
2021/09/24 02:21:32;;;;;;;2.05;1.48;;;;;;;19.08;39.94;101727.38;144992;593;6002;-78
2021/09/24 02:23:59;;;;;;;1.60;1.50;;;;;;;19.11;39.91;101727.41;144992;588;6002;-77
2021/09/24 02:26:26;;;;;;;2.08;1.60;;;;;;;19.12;39.70;101723.94;144992;594;6002;-78
2021/09/24 02:28:52;;;;;;;3.53;1.62;;;;;;;19.11;39.95;101723.91;144992;609;6002;-77
2021/09/24 02:31:19;;;;;;;1.85;1.60;;;;;;;18.95;40.16;101723.72;144992;587;6002;-78
2021/09/24 02:33:45;;;;;;;1.62;1.52;;;;;;;18.95;40.02;101728.13;144992;608;6002;-77
2021/09/24 02:36:12;;;;;;;2.15;1.50;;;;;;;18.87;40.37;101722.78;144992;579;6002;-76
2021/09/24 02:38:38;;;;;;;1.60;1.50;;;;;;;18.77;40.66;101734.91;144992;559;6002;-76
2021/09/24 02:41:05;;;;;;;2.60;1.50;;;;;;;18.81;40.51;101723.53;144992;577;6002;-77
2021/09/24 02:43:33;;;;;;;1.70;1.60;;;;;;;18.89;40.08;101722.78;144992;588;6002;-77
2021/09/24 02:46:00;;;;;;;1.45;1.35;;;;;;;18.93;40.33;101721.94;144992;566;6017;-77
2021/09/24 02:48:26;;;;;;;2.67;2.28;;;;;;;19.00;40.31;101726.41;144992;583;6002;-77
2021/09/24 02:50:53;;;;;;;3.00;1.92;;;;;;;19.03;40.25;101724.69;144992;582;6002;-79
2021/09/24 02:53:19;;;;;;;3.50;2.20;;;;;;;19.06;40.14;101722.94;144992;569;6002;-76
2021/09/24 02:55:46;;;;;;;2.00;1.80;;;;;;;19.09;40.26;101723.88;144992;686;6002;-77
2021/09/24 02:58:12;;;;;;;5.55;2.22;;;;;;;19.12;39.93;101723.94;144992;564;6002;-77
2021/09/24 03:00:38;;;;;;;2.00;1.80;;;;;;;19.04;40.57;101720.31;144992;579;6002;-78
2021/09/24 03:03:05;;;;;;;3.60;2.20;;;;;;;19.01;40.86;101728.19;144991;587;6002;-76
2021/09/24 03:05:31;;;;;;;5.47;2.60;;;;;;;19.00;40.35;101724.66;144992;577;6002;-75
2021/09/24 03:07:58;;;;;;;4.87;2.42;;;;;;;19.00;40.44;101723.78;144992;626;6002;-78
2021/09/24 03:10:24;;;;;;;5.20;2.72;;;;;;;18.98;40.67;101736.94;144992;610;6002;-76
2021/09/24 03:12:51;;;;;;;6.28;2.92;;;;;;;18.93;40.91;101725.47;144992;600;6002;-78
2021/09/24 03:15:17;;;;;;;8.13;3.20;;;;;;;18.86;41.10;101731.50;144992;610;6002;-77
2021/09/24 03:17:44;;;;;;;6.85;3.65;;;;;;;18.81;41.17;101726.16;144992;745;6002;-77
2021/09/24 03:20:11;;;;;;;4.68;3.33;;;;;;;18.77;41.29;101723.47;144992;593;6002;-78
2021/09/24 03:22:38;;;;;;;6.00;3.35;;;;;;;18.80;41.20;101720.88;144992;582;6002;-76
2021/09/24 03:25:05;;;;;;;6.47;3.58;;;;;;;18.65;40.95;101733.00;144991;575;6002;-77
2021/09/24 03:27:36;;;;;;;5.95;3.80;;;;;;;18.71;41.62;101737.44;144992;637;6002;-76
2021/09/24 03:30:04;;;;;;;9.00;3.80;;;;;;;18.78;41.37;101730.50;144992;604;6002;-77
2021/09/24 03:32:31;;;;;;;7.87;3.20;;;;;;;18.84;41.33;101730.62;144992;674;6002;-77
2021/09/24 03:34:59;;;;;;;3.72;2.28;;;;;;;18.85;41.39;101741.16;144992;654;6002;-78
2021/09/24 03:37:26;;;;;;;4.03;2.22;;;;;;;18.85;41.41;101741.16;144992;571;6002;-75
2021/09/24 03:39:53;;;;;;;2.67;2.00;;;;;;;18.88;41.61;101742.06;144992;606;6002;-78
2021/09/24 03:42:19;;;;;;;2.30;2.10;;;;;;;18.87;41.37;101732.38;144992;577;6002;-76
2021/09/24 03:44:46;;;;;;;2.70;1.80;;;;;;;18.81;41.56;101734.06;144992;585;6002;-79
2021/09/24 03:47:12;;;;;;;2.70;1.62;;;;;;;18.81;41.37;101723.53;144992;585;6002;-76
2021/09/24 03:49:39;;;;;;;2.92;2.03;;;;;;;18.78;41.74;101734.03;144992;658;6002;-76
2021/09/24 03:52:06;;;;;;;3.12;1.98;;;;;;;18.72;42.44;101741.81;144992;564;6002;-77
2021/09/24 03:54:32;;;;;;;6.62;1.90;;;;;;;18.64;42.19;101732.97;144992;604;6002;-78
2021/09/24 03:56:59;;;;;;;10.18;2.10;;;;;;;18.66;42.10;101731.25;144992;641;6002;-76
2021/09/24 03:59:25;;;;;;;5.93;2.12;;;;;;;18.72;42.22;101733.06;144992;593;6002;-77
2021/09/24 04:01:51;;;;;;;11.32;2.50;;;;;;;18.75;41.77;101728.72;144992;608;6002;-76
2021/09/24 04:04:19;;;;;;;4.43;2.10;;;;;;;18.82;42.11;101727.06;144992;571;6002;-76
2021/09/24 04:06:45;;;;;;;6.20;2.22;;;;;;;18.89;42.07;101723.66;144992;583;6003;-74
2021/09/24 04:09:12;;;;;;;4.55;2.25;;;;;;;18.89;42.44;101731.56;144992;630;6011;-75
2021/09/24 04:11:38;;;;;;;3.35;2.05;;;;;;;18.90;42.05;101724.53;144992;598;6002;-74
2021/09/24 04:14:06;;;;;;;6.97;1.98;;;;;;;18.88;41.92;101721.00;144992;580;6003;-77
2021/09/24 04:16:33;;;;;;;3.78;1.80;;;;;;;18.90;42.08;101724.53;144992;611;6002;-77
2021/09/24 04:18:59;;;;;;;3.83;1.98;;;;;;;18.92;41.78;101723.69;144992;569;6002;-74
2021/09/24 04:21:26;;;;;;;2.20;1.70;;;;;;;18.94;41.97;101728.97;144992;566;6002;-76
2021/09/24 04:23:52;;;;;;;7.05;2.00;;;;;;;18.95;42.05;101730.75;144992;575;6002;-75
2021/09/24 04:26:19;;;;;;;6.05;2.40;;;;;;;18.91;42.12;101726.31;144992;587;6002;-74
2021/09/24 04:28:45;;;;;;;3.60;2.12;;;;;;;18.93;41.96;101727.19;144992;629;6002;-77
2021/09/24 04:31:12;;;;;;;3.17;2.83;;;;;;;18.92;41.74;101717.56;144992;569;6002;-77
2021/09/24 04:33:38;;;;;;;4.95;3.50;;;;;;;18.92;42.07;101721.06;144992;569;6002;-76
2021/09/24 04:36:05;;;;;;;7.37;4.00;;;;;;;18.92;41.88;101725.47;144992;599;6002;-75
2021/09/24 04:38:31;;;;;;;7.57;3.78;;;;;;;18.91;42.18;101726.31;144992;600;6002;-76
2021/09/24 04:40:58;;;;;;;7.03;4.10;;;;;;;18.86;42.45;101726.25;144992;570;6002;-73
2021/09/24 04:43:24;;;;;;;8.80;3.95;;;;;;;18.89;41.96;101726.28;144992;565;6002;-73
2021/09/24 04:45:51;;;;;;;6.68;4.00;;;;;;;18.94;42.17;101726.34;144992;601;6002;-73
2021/09/24 04:48:17;;;;;;;4.75;3.20;;;;;;;18.98;42.13;101725.53;144992;603;6002;-73
2021/09/24 04:50:43;;;;;;;5.85;3.95;;;;;;;19.00;42.06;101729.06;144992;587;6002;-73
2021/09/24 04:53:10;;;;;;;3.72;3.15;;;;;;;19.01;42.17;101725.56;144992;668;6002;-74
2021/09/24 04:55:36;;;;;;;2.58;2.15;;;;;;;18.98;42.25;101728.16;144992;565;6002;-74
2021/09/24 04:58:03;;;;;;;3.67;2.17;;;;;;;18.91;42.00;101726.31;144993;565;6002;-74
2021/09/24 05:00:29;;;;;;;6.32;3.78;;;;;;;18.93;42.49;101722.84;144993;569;6002;-75
2021/09/24 05:02:56;;;;;;;3.62;3.00;;;;;;;18.97;42.26;101729.00;144993;607;6002;-74
2021/09/24 05:05:23;;;;;;;3.12;2.25;;;;;;;19.01;42.04;101722.94;144993;671;6002;-75
2021/09/24 05:07:50;;;;;;;4.75;2.97;;;;;;;19.02;41.98;101722.91;144993;564;6002;-75
2021/09/24 05:10:16;;;;;;;3.62;2.80;;;;;;;19.05;42.40;101721.22;144993;665;6002;-74
2021/09/24 05:12:43;;;;;;;3.17;2.67;;;;;;;19.10;42.46;101715.09;144993;600;6002;-75
2021/09/24 05:15:10;;;;;;;2.92;2.10;;;;;;;19.07;42.42;101720.34;144993;571;6002;-74
2021/09/24 05:17:36;;;;;;;5.03;2.17;;;;;;;19.13;42.38;101719.53;144993;593;6002;-73
2021/09/24 05:20:04;;;;;;;5.22;2.20;;;;;;;19.19;42.16;101722.22;144993;590;6002;-74
2021/09/24 05:22:30;;;;;;;5.25;2.15;;;;;;;19.24;42.33;101730.19;144993;578;6002;-77
2021/09/24 05:24:57;;;;;;;5.05;2.60;;;;;;;19.28;42.02;101724.97;144993;674;6002;-74
2021/09/24 05:27:23;;;;;;;2.70;2.05;;;;;;;19.34;42.24;101719.75;144993;662;6002;-74
2021/09/24 05:29:50;;;;;;;4.60;2.33;;;;;;;19.42;41.86;101725.06;144992;613;6002;-76
2021/09/24 05:32:17;;;;;;;3.30;2.50;;;;;;;19.46;41.98;101732.16;144992;602;6002;-76
2021/09/24 05:34:44;;;;;;;3.12;2.28;;;;;;;19.42;42.06;101725.06;144991;626;6002;-77
2021/09/24 05:37:10;;;;;;;6.00;2.40;;;;;;;19.43;42.17;101732.13;144992;564;6002;-76
2021/09/24 05:39:37;;;;;;;5.37;2.20;;;;;;;19.48;41.91;101735.66;144992;606;6002;-73
2021/09/24 05:42:03;;;;;;;5.50;2.45;;;;;;;19.54;41.77;101738.34;144992;606;6002;-75
2021/09/24 05:44:30;;;;;;;5.32;2.70;;;;;;;19.58;41.76;101732.25;144993;602;6002;-72
2021/09/24 05:46:56;;;;;;;6.05;2.70;;;;;;;19.66;41.75;101737.59;144993;566;6002;-74
2021/09/24 05:49:25;;;;;;;4.20;2.17;;;;;;;19.77;42.17;101734.19;144993;594;6002;-73
2021/09/24 05:51:51;;;;;;;4.60;2.10;;;;;;;19.88;42.05;101737.78;144993;588;6002;-73
2021/09/24 05:54:18;;;;;;;5.43;2.60;;;;;;;19.92;41.92;101740.44;144993;575;6002;-73
2021/09/24 05:56:44;;;;;;;3.85;2.55;;;;;;;20.01;42.02;101744.94;144993;571;6002;-71
2021/09/24 05:59:11;;;;;;;8.32;2.75;;;;;;;20.10;41.91;101744.09;144993;627;6002;-73
2021/09/24 06:01:37;;;;;;;4.35;2.10;;;;;;;20.20;41.90;101743.28;144993;595;6002;-73
2021/09/24 06:04:04;;;;;;;2.47;2.10;;;;;;;20.29;41.27;101745.97;144993;576;6002;-73
2021/09/24 06:06:32;;;;;;;3.95;2.65;;;;;;;20.37;40.99;101735.47;144993;582;6002;-74
2021/09/24 06:08:58;;;;;;;4.18;2.83;;;;;;;20.46;40.86;101734.63;144993;564;6002;-75
2021/09/24 06:11:25;;;;;;;2.78;2.30;;;;;;;20.51;40.81;101735.53;144993;597;6002;-75
2021/09/24 06:13:51;;;;;;;4.37;2.95;;;;;;;20.58;40.73;101736.44;144993;574;6002;-77
2021/09/24 06:16:18;;;;;;;6.75;2.78;;;;;;;20.62;40.94;101728.53;144993;576;6002;-75
2021/09/24 06:18:45;;;;;;;5.75;2.95;;;;;;;20.73;40.98;101731.28;144993;610;6002;-75
2021/09/24 06:21:11;;;;;;;7.93;4.57;;;;;;;20.87;40.74;101731.31;144993;608;6002;-75
2021/09/24 06:23:39;;;;;;;7.32;3.87;;;;;;;20.94;40.96;101735.72;144993;572;6002;-74
2021/09/24 06:26:07;;;;;;;9.52;4.25;;;;;;;21.02;40.79;101730.47;144993;569;6002;-76
2021/09/24 06:28:33;;;;;;;6.53;3.90;;;;;;;21.14;40.19;101734.87;144993;580;6003;-73
2021/09/24 06:31:00;;;;;;;9.25;4.40;;;;;;;21.24;40.54;101733.16;144993;583;6002;-77
2021/09/24 06:33:26;;;;;;;7.45;4.62;;;;;;;21.38;40.32;101727.03;144993;565;6002;-75
2021/09/24 06:35:53;;;;;;;7.40;4.82;;;;;;;21.37;39.91;101730.53;144992;564;6002;-75
2021/09/24 06:38:19;;;;;;;6.80;4.80;;;;;;;21.40;40.41;101728.78;144994;599;5002;-75
2021/09/24 06:40:46;;;;;;;6.97;4.87;;;;;;;21.34;37.07;101729.66;144994;605;5002;-75
2021/09/24 06:43:12;;;;;;;8.23;4.18;;;;;;;21.36;39.50;101736.72;144994;590;5002;-78
2021/09/24 06:45:39;;;;;;;5.70;3.87;;;;;;;21.51;40.13;101735.00;144994;589;5002;-75
2021/09/24 06:48:06;;;;;;;8.10;6.00;;;;;;;21.73;40.36;101727.97;144994;634;5002;-76
2021/09/24 06:50:34;;;;;;;8.25;6.30;;;;;;;21.94;39.59;101732.34;144994;671;5002;-74
2021/09/24 06:53:01;;;;;;;8.60;6.70;;;;;;;22.16;39.35;101727.88;144994;640;5002;-74
2021/09/24 06:55:28;;;;;;;10.95;8.60;;;;;;;22.37;39.28;101732.25;144994;586;5002;-75
2021/09/24 06:57:56;;;;;;;7.32;5.55;;;;;;;22.62;39.04;101732.16;144994;618;5002;-73
2021/09/24 07:00:23;;;;;;;5.10;4.50;;;;;;;22.85;39.29;101725.91;144994;589;5002;-75
2021/09/24 07:02:50;;;;;;;6.72;4.43;;;;;;;23.02;38.59;101731.97;144994;583;5002;-75
2021/09/24 07:05:17;;;;;;;5.25;4.75;;;;;;;23.25;38.70;101733.62;144994;591;5002;-76
2021/09/24 07:07:44;;;;;;;5.82;4.25;;;;;;;23.42;38.56;101723.78;144994;582;5002;-76
2021/09/24 07:10:12;;;;;;;6.82;3.60;;;;;;;23.63;38.30;101721.84;144994;591;5002;-75
2021/09/24 07:12:40;;;;;;;5.50;4.75;;;;;;;23.79;38.07;101734.06;144994;585;5002;-73
2021/09/24 07:15:07;;;;;;;6.72;5.70;;;;;;;24.00;38.06;101732.16;144994;579;5002;-75
2021/09/24 07:17:34;;;;;;;5.72;3.25;;;;;;;24.22;38.09;101733.66;144994;613;5002;-75
2021/09/24 07:20:01;;;;;;;4.12;2.80;;;;;;;24.38;37.20;101721.09;144994;570;5002;-75
2021/09/24 07:22:28;;;;;;;2.90;2.10;;;;;;;24.55;37.41;101728.00;144994;583;5002;-75
2021/09/24 07:24:55;;;;;;;2.40;2.20;;;;;;;24.69;37.17;101727.84;144994;674;5002;-74
2021/09/24 07:27:22;;;;;;;4.20;3.40;;;;;;;24.83;37.07;101725.88;144994;630;5002;-74
2021/09/24 07:29:49;;;;;;;4.82;3.62;;;;;;;24.99;37.20;101727.44;144994;572;5002;-74
2021/09/24 07:32:16;;;;;;;3.55;2.90;;;;;;;25.19;36.59;101722.72;144994;593;5002;-76
2021/09/24 07:34:43;;;;;;;4.07;3.45;;;;;;;25.37;36.66;101726.91;144994;626;5002;-75
2021/09/24 07:37:13;;;;;;;4.47;3.05;;;;;;;25.55;36.72;101728.37;144994;640;5002;-75
2021/09/24 07:39:39;;;;;;;3.75;2.67;;;;;;;25.69;36.70;101724.59;144994;655;5002;-75
2021/09/24 07:42:07;;;;;;;3.97;2.17;;;;;;;25.84;36.07;101731.41;144994;576;5002;-76
2021/09/24 07:44:34;;;;;;;3.08;1.83;;;;;;;26.00;36.00;101736.50;144994;613;5002;-75
2021/09/24 07:47:00;;;;;;;2.28;1.70;;;;;;;26.15;35.46;101727.34;144994;597;5002;-75
2021/09/24 07:49:27;;;;;;;2.35;1.35;;;;;;;26.29;36.04;101733.25;144994;568;5002;-76
2021/09/24 07:51:53;;;;;;;1.85;1.20;;;;;;;26.37;34.18;101726.00;144994;578;5002;-75
2021/09/24 07:54:24;;;;;;;1.60;1.23;;;;;;;26.39;33.76;101723.31;144994;592;5002;-75
2021/09/24 07:56:51;;;;;;;1.50;1.30;;;;;;;26.39;34.27;101725.97;144994;573;5002;-75
2021/09/24 07:59:18;;;;;;;1.77;1.40;;;;;;;26.50;34.43;101728.41;144994;605;5002;-76
2021/09/24 08:01:45;;;;;;;3.05;1.35;;;;;;;26.58;34.12;101730.03;144994;591;5002;-75
2021/09/24 08:04:12;;;;;;;1.92;1.70;;;;;;;26.69;33.72;101721.81;144994;589;5002;-75
2021/09/24 08:06:38;;;;;;;1.40;1.30;;;;;;;26.71;34.17;101722.69;144994;843;5002;-74
2021/09/24 08:09:05;;;;;;;2.12;1.45;;;;;;;26.74;33.81;101717.28;144994;612;5002;-75
2021/09/24 08:11:32;;;;;;;2.37;1.58;;;;;;;26.72;33.36;101721.75;144994;583;5002;-74
2021/09/24 08:13:58;;;;;;;2.03;1.52;;;;;;;26.75;33.13;101721.69;144994;615;5002;-74
2021/09/24 08:16:25;;;;;;;2.22;1.70;;;;;;;26.86;34.03;101724.13;144994;581;5002;-75
2021/09/24 08:18:51;;;;;;;4.57;1.70;;;;;;;26.99;33.39;101727.38;144994;914;5002;-75
2021/09/24 08:21:19;;;;;;;2.35;1.60;;;;;;;27.09;33.33;101720.03;144994;634;5002;-74
2021/09/24 08:23:46;;;;;;;2.28;1.48;;;;;;;27.24;33.26;101722.34;144994;913;5002;-74
2021/09/24 08:26:13;;;;;;;2.97;1.52;;;;;;;27.25;33.27;101715.22;144994;593;5002;-75
2021/09/24 08:28:39;;;;;;;2.22;2.03;;;;;;;27.27;33.34;101711.63;144994;914;5002;-75
2021/09/24 08:31:06;;;;;;;5.18;2.00;;;;;;;27.32;33.17;101716.88;144994;595;5002;-75
2021/09/24 08:33:32;;;;;;;4.85;1.90;;;;;;;27.36;33.37;101704.34;144994;572;5002;-74
2021/09/24 08:35:58;;;;;;;2.47;1.40;;;;;;;27.42;33.14;101707.72;144994;914;5002;-75
2021/09/24 08:38:25;;;;;;;2.83;2.00;;;;;;;27.56;32.78;101707.38;144994;585;5002;-75
2021/09/24 08:40:51;;;;;;;2.40;1.98;;;;;;;27.67;33.18;101705.28;144993;661;5002;-75
2021/09/24 08:43:18;;;;;;;3.42;1.92;;;;;;;27.71;32.42;101700.75;144994;573;5002;-74
2021/09/24 08:45:48;;;;;;;4.65;2.60;;;;;;;27.62;31.75;101693.88;144994;914;5002;-76
2021/09/24 08:48:15;;;;;;;2.97;2.40;;;;;;;27.63;32.06;101698.31;144994;577;5002;-74
2021/09/24 08:50:44;;;;;;;5.07;2.15;;;;;;;27.69;31.77;101697.25;144994;914;5002;-75
2021/09/24 08:53:12;;;;;;;1.98;1.83;;;;;;;27.79;32.17;101696.12;144994;689;5002;-75
2021/09/24 08:55:44;;;;;;;3.37;2.15;;;;;;;27.83;31.78;101689.75;144994;604;5002;-77
2021/09/24 08:58:12;;;;;;;3.25;2.15;;;;;;;27.75;31.01;101690.91;144994;593;5002;-75
2021/09/24 09:00:42;;;;;;;5.82;5.00;;;;;;;27.64;30.26;101683.19;144994;678;5002;-75
2021/09/24 09:03:18;;;;;;;3.00;2.70;;;;;;;27.66;31.79;101678.66;144994;563;5002;-75
2021/09/24 09:05:53;;;;;;;3.03;2.10;;;;;;;27.74;31.41;101675.81;144994;622;5002;-76
2021/09/24 09:08:30;;;;;;;2.37;1.90;;;;;;;27.78;32.10;101683.69;144994;667;5002;-74
2021/09/24 09:11:04;;;;;;;2.00;1.73;;;;;;;27.90;31.91;101665.59;144994;615;5004;-76
2021/09/24 09:14:01;;;;;;;3.62;2.25;;;;;;;28.01;31.54;101668.84;144994;566;5004;-74
2021/09/24 09:16:38;;;;;;;3.47;1.92;;;;;;;27.96;31.33;101668.13;144994;597;5002;-76
2021/09/24 09:19:17;;;;;;;4.12;2.20;;;;;;;27.51;29.67;101659.50;144994;563;5002;-76
2021/09/24 09:21:47;;;;;;;3.30;2.20;;;;;;;27.36;31.25;101661.69;144994;661;5002;-74
2021/09/24 09:24:26;;;;;;;3.60;2.03;;;;;;;27.27;30.11;101654.78;144994;629;5002;-74
2021/09/24 09:27:18;;;;;;;6.10;1.83;;;;;;;26.90;29.38;101647.66;144994;873;5002;-74
2021/09/24 09:30:12;;;;;;;2.55;1.83;;;;;;;26.29;30.02;101645.44;144994;591;5004;-74
2021/09/24 09:32:44;;;;;;;3.20;1.70;;;;;;;26.09;30.58;101650.28;144994;588;5004;-74
2021/09/24 09:35:12;;;;;;;2.60;1.60;;;;;;;25.92;30.09;101635.53;144994;648;5004;-74
2021/09/24 09:37:39;;;;;;;2.83;1.85;;;;;;;25.89;30.69;101638.25;144994;565;5004;-74
2021/09/24 09:40:20;;;;;;;3.90;2.20;;;;;;;25.95;31.14;101640.78;144994;911;5004;-75
2021/09/24 09:42:49;;;;;;;2.45;1.70;;;;;;;25.76;31.26;101634.09;144994;569;5004;-76
2021/09/24 09:45:19;;;;;;;2.35;1.70;;;;;;;25.63;31.15;101634.31;144994;571;5004;-76
2021/09/24 09:47:47;;;;;;;2.35;2.10;;;;;;;25.53;31.63;101625.63;144994;799;5004;-75
2021/09/24 09:50:20;;;;;;;1.65;1.55;;;;;;;25.46;31.62;101631.94;144994;912;5004;-74
2021/09/24 09:53:12;;;;;;;2.22;1.40;;;;;;;25.24;32.50;101619.91;144994;907;5004;-75
2021/09/24 09:55:42;;;;;;;2.28;1.83;;;;;;;25.20;32.55;101626.16;144994;571;5004;-74
2021/09/24 09:58:11;;;;;;;2.05;1.85;;;;;;;25.10;31.63;101617.47;144994;863;5004;-75
2021/09/24 10:01:03;;;;;;;1.58;1.48;;;;;;;25.04;32.23;101622.88;144994;564;5004;-74
2021/09/24 10:03:53;;;;;;;2.20;1.62;;;;;;;25.10;32.41;101612.16;144994;575;5002;-76
2021/09/24 10:06:26;;;;;;;1.60;1.50;;;;;;;25.01;31.85;101612.31;144994;914;5002;-73
2021/09/24 10:08:55;;;;;;;1.55;1.45;;;;;;;24.88;32.20;101608.97;144994;582;5002;-73
2021/09/24 10:11:38;;;;;;;2.15;1.73;;;;;;;24.68;32.74;101604.00;144994;633;5002;-76
2021/09/24 10:14:13;;;;;;;2.30;1.70;;;;;;;24.72;32.45;101605.69;144994;594;5002;-74
2021/09/24 10:16:48;;;;;;;1.70;1.60;;;;;;;24.76;32.92;101602.94;144993;629;5002;-74
2021/09/24 10:19:15;;;;;;;;;;;;;;;24.75;32.61;101602.97;144998;914;5002;-76
2021/09/24 10:21:42;;;;;;;3.00;1.98;;;;;;;24.91;32.72;101608.94;144998;598;5002;-75
2021/09/24 10:24:09;;;;;;;4.15;2.35;;;;;;;24.91;33.04;101606.28;144994;563;5002;-75
2021/09/24 10:26:45;;;;;;;2.65;1.95;;;;;;;25.02;32.69;101599.00;144994;582;5003;-76
2021/09/24 10:29:20;;;;;;;1.80;1.52;;;;;;;25.18;32.37;101589.00;144994;588;5002;-75
2021/09/24 10:31:53;;;;;;;2.72;1.73;;;;;;;25.17;32.58;101592.56;144994;605;5002;-76
2021/09/24 10:34:22;;;;;;;1.60;1.45;;;;;;;25.06;31.81;101579.47;144994;593;5002;-76
2021/09/24 10:36:51;;;;;;;2.80;1.60;;;;;;;24.94;32.89;101583.22;144994;639;5002;-76
2021/09/24 10:39:37;;;;;;;1.65;1.50;;;;;;;25.09;32.39;101591.84;144994;589;5002;-75
2021/09/24 10:42:27;;;;;;;2.83;1.80;;;;;;;25.17;31.88;101574.84;144994;854;5002;-75
2021/09/24 10:45:35;;;;;;;2.67;1.87;;;;;;;25.12;31.84;101558.13;144994;564;5002;-75
2021/09/24 10:48:20;;;;;;;3.65;2.40;;;;;;;25.34;32.02;101558.63;144994;861;5004;-74
2021/09/24 10:50:55;;;;;;;8.90;7.35;;;;;;;25.29;32.18;101555.19;144994;585;5004;-75
2021/09/24 10:53:28;;;;;;;2.35;2.15;;;;;;;25.23;32.33;101551.72;144994;596;5004;-74
2021/09/24 10:56:23;;;;;;;2.53;1.70;;;;;;;25.40;31.60;101554.97;144993;648;5004;-75
2021/09/24 10:58:50;;;;;;;2.95;1.92;;;;;;;25.30;31.99;101562.25;144994;574;5002;-75
2021/09/24 11:01:31;;;;;;;2.95;1.70;;;;;;;25.13;31.84;101559.88;144994;587;5002;-75
2021/09/24 11:04:03;;;;;;;2.28;1.70;;;;;;;25.02;31.96;101550.31;144994;588;5002;-76
2021/09/24 11:06:44;;;;;;;2.90;1.98;;;;;;;24.96;32.24;101549.53;144994;597;5002;-77
2021/09/24 11:09:15;;;;;;;3.28;2.20;;;;;;;24.92;32.74;101546.97;144994;640;4566;-75
2021/09/24 11:11:47;;;;;;;2.92;1.60;;;;;;;24.96;32.52;101527.44;144994;601;4567;-77
2021/09/24 11:14:32;;;;;;;2.15;1.65;;;;;;;25.03;32.63;101536.16;144994;595;4572;-75
2021/09/24 11:16:59;;;;;;;1.80;1.70;;;;;;;25.07;32.21;101535.19;144993;587;6002;-75
2021/09/24 11:19:44;;;;;;;2.65;1.60;;;;;;;25.11;32.32;101523.59;144992;621;6002;-74
2021/09/24 11:22:38;;;;;;;5.40;3.25;;;;;;;25.05;31.71;101513.09;144992;611;6002;-73
2021/09/24 11:25:10;;;;;;;2.75;1.70;;;;;;;25.16;31.40;101513.75;144992;599;6002;-76
2021/09/24 11:27:45;;;;;;;2.65;1.70;;;;;;;25.16;31.40;101506.66;144992;595;6002;-78
2021/09/24 11:30:24;;;;;;;2.60;2.40;;;;;;;25.26;31.91;101502.09;144992;607;6002;-78
2021/09/24 11:32:59;;;;;;;3.40;1.70;;;;;;;25.24;31.37;101503.88;144992;583;6002;-75
2021/09/24 11:35:45;;;;;;;2.15;1.58;;;;;;;25.34;31.77;101509.91;144992;619;6002;-78
2021/09/24 11:38:17;;;;;;;3.95;1.48;;;;;;;25.35;31.24;101493.94;144992;583;6002;-78
2021/09/24 11:40:55;;;;;;;2.20;1.80;;;;;;;25.23;31.06;101501.25;144992;625;6002;-76
2021/09/24 11:43:33;;;;;;;2.03;1.80;;;;;;;25.08;31.17;101495.31;144992;573;6002;-78